Time;durP1;ratioP1;P1;durP2;ratioP2;P2;SDS_P1;SDS_P2;PMS_P1;PMS_P2;Temp;Humidity;BMP_temperature;BMP_pressure;BME280_temperature;BME280_humidity;BME280_pressure;Samples;Min_cycle;Max_cycle;Signal;HPM_P1;HPM_P2
2022/11/15 00:01:23;;;;;;;122.37;64.97;;;;;;;3.53;85.18;100489.38;2144624;83;29669;-68
2022/11/15 00:04:24;;;;;;;110.48;60.73;;;;;;;3.52;85.32;100480.11;2144670;83;30506;-68
2022/11/15 00:07:26;;;;;;;110.88;61.65;;;;;;;3.50;85.41;100475.72;2120103;84;33790;-69
2022/11/15 00:10:28;;;;;;;112.65;61.37;;;;;;;3.49;85.46;100479.27;2144740;83;29319;-68
2022/11/15 00:13:30;;;;;;;109.67;59.50;;;;;;;3.49;85.42;100470.45;2144774;83;27825;-69
2022/11/15 00:16:32;;;;;;;111.35;60.70;;;;;;;3.47;85.48;100466.53;2144716;83;28706;-69
2022/11/15 00:19:34;;;;;;;114.15;61.28;;;;;;;3.47;85.58;100459.02;2144698;83;31101;-69
2022/11/15 00:22:36;;;;;;;114.88;61.68;;;;;;;3.46;85.60;100454.18;2120106;84;33169;-69
2022/11/15 00:25:38;;;;;;;110.78;61.42;;;;;;;3.47;85.64;100452.39;2185102;80;29752;-69
2022/11/15 00:28:41;;;;;;;120.45;61.40;;;;;;;3.47;85.57;100451.07;2159449;82;28199;-69
2022/11/15 00:31:43;;;;;;;121.50;62.20;;;;;;;3.45;85.61;100444.92;2188162;81;28644;-69
2022/11/15 00:34:44;;;;;;;117.47;62.38;;;;;;;3.44;85.52;100448.47;2159361;82;31656;-69
2022/11/15 00:37:47;;;;;;;123.72;65.37;;;;;;;3.43;85.47;100448.94;2159127;82;33016;-69
2022/11/15 00:40:49;;;;;;;119.87;62.67;;;;;;;3.39;85.37;100445.05;2159325;82;29420;-69
2022/11/15 00:43:50;;;;;;;121.70;60.17;;;;;;;3.36;85.20;100445.95;2159462;82;27561;-68
2022/11/15 00:46:52;;;;;;;118.53;62.10;;;;;;;3.31;85.10;100442.07;2159435;82;28806;-69
2022/11/15 00:49:54;;;;;;;118.35;62.65;;;;;;;3.28;85.18;100434.17;2159314;82;31189;-70
2022/11/15 00:52:56;;;;;;;115.12;60.60;;;;;;;3.25;85.31;100429.39;2159436;82;33703;-69
2022/11/15 00:55:57;;;;;;;115.62;61.33;;;;;;;3.21;85.45;100429.02;2159311;82;30158;-69
2022/11/15 00:58:59;;;;;;;128.40;66.30;;;;;;;3.19;85.45;100424.62;2159358;82;27582;-69
2022/11/15 01:02:01;;;;;;;124.62;66.17;;;;;;;3.17;85.62;100425.09;2159147;82;28645;-69
2022/11/15 01:05:03;;;;;;;114.90;61.88;;;;;;;3.17;85.66;100424.23;2159242;82;31050;-68
2022/11/15 01:08:05;;;;;;;114.85;62.23;;;;;;;3.16;85.69;100423.34;2159390;82;33664;-69
2022/11/15 01:11:10;;;;;;;108.90;57.50;;;;;;;3.16;85.68;100429.10;2159518;82;30353;-69
2022/11/15 01:14:12;;;;;;;121.57;61.08;;;;;;;3.16;85.59;100438.36;2159523;82;27667;-69
2022/11/15 01:17:14;;;;;;;119.20;62.85;;;;;;;3.12;85.44;100438.88;2159485;82;28089;-69
2022/11/15 01:20:15;;;;;;;114.95;63.83;;;;;;;3.09;85.45;100428.33;2159446;82;31091;-69
2022/11/15 01:23:17;;;;;;;115.97;60.85;;;;;;;3.06;85.38;100416.47;2158879;82;33114;-69
2022/11/15 01:26:18;;;;;;;114.25;60.80;;;;;;;3.03;85.37;100420.48;2142622;83;30186;-69
2022/11/15 01:29:20;;;;;;;114.62;60.10;;;;;;;2.99;85.42;100418.34;2143087;83;27677;-69
2022/11/15 01:32:22;;;;;;;113.52;60.95;;;;;;;2.98;85.50;100423.21;2142879;83;28699;-70
2022/11/15 01:35:23;;;;;;;110.37;60.85;;;;;;;2.96;85.38;100424.14;2142633;83;31872;-68
2022/11/15 01:38:25;;;;;;;121.57;62.38;;;;;;;2.91;85.14;100416.72;2142886;83;32941;-69
2022/11/15 01:41:31;;;;;;;105.03;58.75;;;;;;;2.88;85.14;100414.55;2142978;83;30113;-68
2022/11/15 01:44:48;;;;;;;108.87;59.30;;;;;;;2.83;84.94;100407.13;2143025;83;27603;-69
2022/11/15 01:47:52;;;;;;;111.62;59.93;;;;;;;2.78;84.87;100397.08;2142916;83;28654;-69
2022/11/15 01:50:54;;;;;;;119.17;62.78;;;;;;;2.74;84.82;100398.02;2142951;83;31908;-68
2022/11/15 01:54:01;;;;;;;117.00;63.33;;;;;;;2.67;84.76;100388.42;2142931;83;32956;-68
2022/11/15 01:57:07;;;;;;;112.32;61.77;;;;;;;2.63;84.96;100386.28;2143002;83;30118;-66
2022/11/15 02:00:10;;;;;;;109.67;58.60;;;;;;;2.61;84.98;100384.57;2143124;83;27735;-67
2022/11/15 02:03:12;;;;;;;114.32;60.65;;;;;;;2.57;84.84;100378.43;2142884;83;28729;-67
2022/11/15 02:06:13;;;;;;;101.75;57.08;;;;;;;2.52;84.70;100375.86;2142854;83;30994;-67
2022/11/15 02:09:16;;;;;;;99.77;55.58;;;;;;;2.49;84.68;100368.44;2142809;83;33804;-70
2022/11/15 02:12:20;;;;;;;111.57;57.48;;;;;;;2.44;84.72;100368.52;2142903;83;29330;-68
2022/11/15 02:15:25;;;;;;;105.77;55.80;;;;;;;2.40;84.62;100360.20;2143193;83;27633;-68
2022/11/15 02:18:34;;;;;;;107.40;56.77;;;;;;;2.36;84.73;100366.41;2142977;83;28650;-67
2022/11/15 02:22:04;;;;;;;110.35;55.70;;;;;;;2.32;84.65;100361.63;2145796;82;31022;-68
2022/11/15 02:25:19;;;;;;;102.53;55.78;;;;;;;2.28;84.66;100359.48;2142692;83;32972;-67
2022/11/15 02:28:43;;;;;;;110.48;56.45;;;;;;;2.26;84.85;100357.74;2143324;83;29357;-69
2022/11/15 02:32:05;;;;;;;102.17;52.08;;;;;;;2.24;84.97;100356.89;2143048;83;27676;-67
2022/11/15 02:35:36;;;;;;;105.22;53.80;;;;;;;2.25;85.22;100353.34;2142833;83;28657;-68
2022/11/15 02:39:04;;;;;;;97.95;54.15;;;;;;;2.23;85.12;100352.06;2143042;83;30469;-68
2022/11/15 02:45:48;;;;;;;104.92;54.65;;;;;;;2.19;85.02;100341.56;2142637;83;29372;-68
2022/11/15 02:48:49;;;;;;;97.53;52.62;;;;;;;2.19;85.37;100350.35;2142933;83;28225;-68
2022/11/15 02:51:51;;;;;;;97.62;52.78;;;;;;;2.20;85.22;100352.56;2142599;83;28721;-68
2022/11/15 02:54:57;;;;;;;100.90;53.83;;;;;;;2.16;85.01;100346.42;2142769;83;31826;-68
2022/11/15 02:58:13;;;;;;;105.32;52.60;;;;;;;2.14;84.94;100340.31;2113764;84;33749;-67
2022/11/15 03:01:41;;;;;;;102.87;53.92;;;;;;;2.10;84.83;100339.47;2142803;83;29338;-68
2022/11/15 03:04:57;;;;;;;100.75;52.13;;;;;;;2.07;84.80;100339.50;2142966;83;27695;-68
2022/11/15 03:08:10;;;;;;;103.40;54.63;;;;;;;2.05;84.79;100334.72;2139407;83;28715;-68
2022/11/15 03:11:19;;;;;;;105.35;56.23;;;;;;;2.02;84.84;100321.97;2142842;83;32113;-67
2022/11/15 03:14:34;;;;;;;110.40;56.15;;;;;;;2.00;84.94;100326.40;2141884;83;32957;-68
2022/11/15 03:17:41;;;;;;;107.32;56.42;;;;;;;1.95;84.92;100323.39;2142925;83;29535;-68
2022/11/15 03:20:44;;;;;;;113.52;55.80;;;;;;;1.94;85.08;100319.00;2141894;82;27685;-69
2022/11/15 03:23:47;;;;;;;105.47;56.48;;;;;;;1.93;85.27;100321.65;2142919;83;28661;-69
2022/11/15 03:26:50;;;;;;;106.07;55.43;;;;;;;1.92;85.22;100318.15;2142516;83;31824;-69
2022/11/15 03:29:57;;;;;;;99.77;55.25;;;;;;;1.91;85.04;100324.75;2142677;83;33908;-68
2022/11/15 03:32:59;;;;;;;95.20;52.17;;;;;;;1.89;84.89;100314.69;2143007;83;29329;-68
2022/11/15 03:36:00;;;;;;;102.97;54.00;;;;;;;1.86;84.97;100315.58;2142889;83;27663;-68
2022/11/15 03:39:07;;;;;;;99.35;52.38;;;;;;;1.84;84.91;100308.12;2142559;83;28692;-69
2022/11/15 03:42:28;;;;;;;109.65;56.70;;;;;;;1.81;84.83;100303.77;2142786;83;31839;-67
2022/11/15 03:45:40;;;;;;;102.67;54.55;;;;;;;1.79;84.83;100297.63;2142866;83;33785;-68
2022/11/15 03:48:53;;;;;;;99.50;53.98;;;;;;;1.78;84.93;100305.58;2142997;83;29331;-69
2022/11/15 03:51:57;;;;;;;110.63;55.95;;;;;;;1.76;84.85;100298.13;2141275;82;27721;-68
2022/11/15 03:55:02;;;;;;;71.55;39.03;;;;;;;1.74;84.67;100290.66;2142860;83;30239;-69
2022/11/15 03:58:03;;;;;;;98.35;51.18;;;;;;;1.72;84.71;100295.98;2142866;83;31012;-69
2022/11/15 04:01:05;;;;;;;108.50;55.12;;;;;;;1.67;84.66;100293.38;2142850;83;32946;-69
2022/11/15 04:04:07;;;;;;;97.65;50.43;;;;;;;1.65;84.87;100296.51;2142856;83;30095;-69
2022/11/15 04:07:08;;;;;;;98.42;51.18;;;;;;;1.65;84.79;100294.30;2143001;83;27689;-70
2022/11/15 04:10:13;;;;;;;99.92;53.73;;;;;;;1.64;84.69;100294.76;2142460;83;28711;-69
2022/11/15 04:13:14;;;;;;;102.95;55.03;;;;;;;1.62;84.76;100294.33;2142826;83;31825;-69
2022/11/15 04:16:16;;;;;;;101.62;53.87;;;;;;;1.60;84.77;100299.64;2142784;83;33726;-69
2022/11/15 04:25:52;;;;;;;93.25;51.18;;;;;;;1.57;84.77;100299.67;2039084;87;29069;-68
2022/11/15 04:32:17;;;;;;;90.40;48.15;;;;;;;1.55;84.90;100292.67;2043558;87;33815;-68
2022/11/15 04:35:21;;;;;;;96.32;51.80;;;;;;;1.51;84.77;100286.54;2043425;87;30173;-70
2022/11/15 04:38:22;;;;;;;94.35;49.10;;;;;;;1.49;84.56;100293.63;2043396;87;27643;-69
2022/11/15 04:41:24;;;;;;;88.75;48.92;;;;;;;1.45;84.54;100288.81;2043359;87;28672;-68
2022/11/15 04:44:26;;;;;;;96.72;53.00;;;;;;;1.43;84.45;100284.45;2043779;87;31811;-68
2022/11/15 04:47:29;;;;;;;100.75;52.30;;;;;;;1.40;84.53;100281.42;2043813;87;32997;-68
2022/11/15 04:50:30;;;;;;;98.90;51.20;;;;;;;1.39;84.81;100274.39;2043779;87;30293;-69
2022/11/15 04:53:32;;;;;;;102.22;53.73;;;;;;;1.39;84.82;100270.43;2043755;87;27776;-69
2022/11/15 04:56:33;;;;;;;91.02;49.48;;;;;;;1.38;84.92;100267.80;2043686;87;28652;-69
2022/11/15 04:59:35;;;;;;;100.97;50.98;;;;;;;1.37;84.84;100273.53;2043830;87;31027;-69
2022/11/15 05:05:58;;;;;;;120.60;60.43;;;;;;;1.35;84.83;100275.31;2159621;82;29370;-70
2022/11/15 05:09:00;;;;;;;120.47;61.83;;;;;;;1.35;85.24;100276.63;2159450;82;27975;-69
2022/11/15 05:12:02;;;;;;;120.30;62.15;;;;;;;1.36;85.35;100275.28;2159488;82;28632;-69
2022/11/15 05:15:04;;;;;;;132.85;67.85;;;;;;;1.38;85.24;100273.97;2159665;82;31864;-69
2022/11/15 05:18:06;;;;;;;138.40;68.95;;;;;;;1.36;85.27;100276.60;2159556;82;33134;-69
2022/11/15 05:21:11;;;;;;;122.70;62.53;;;;;;;1.34;85.25;100261.23;2159570;82;30148;-68
2022/11/15 05:24:12;;;;;;;114.22;61.23;;;;;;;1.34;85.30;100256.41;2160255;82;27670;-68
2022/11/15 05:27:14;;;;;;;121.10;59.45;;;;;;;1.31;85.27;100252.05;2139315;82;29435;-68
2022/11/15 05:30:16;;;;;;;109.42;56.13;;;;;;;1.30;85.28;100252.94;2136928;83;31050;-68
2022/11/15 05:33:18;;;;;;;115.32;56.10;;;;;;;1.29;85.16;100251.20;2137022;83;33059;-69
2022/11/15 05:36:39;;;;;;;103.58;54.80;;;;;;;1.28;85.02;100251.19;2137038;83;29371;-69
2022/11/15 05:39:41;;;;;;;108.25;52.88;;;;;;;1.25;84.89;100248.16;2137129;83;28149;-69
2022/11/15 05:42:42;;;;;;;99.35;52.33;;;;;;;1.23;84.85;100249.94;2136909;83;28665;-70
2022/11/15 05:45:44;;;;;;;97.97;51.75;;;;;;;1.20;84.72;100252.61;2136970;83;31011;-69
2022/11/15 05:48:48;;;;;;;98.87;51.55;;;;;;;1.17;84.54;100250.00;2136871;83;33013;-70
2022/11/15 05:51:52;;;;;;;92.47;49.25;;;;;;;1.14;84.60;100250.06;2136689;83;29418;-70
2022/11/15 05:54:53;;;;;;;95.80;50.43;;;;;;;1.11;84.47;100242.17;2136893;83;27709;-70
2022/11/15 05:57:55;;;;;;;91.63;48.92;;;;;;;1.07;84.41;100242.67;2136886;83;28658;-70
2022/11/15 06:00:57;;;;;;;98.55;49.88;;;;;;;1.04;84.42;100234.78;2136792;83;31820;-70
2022/11/15 06:03:58;;;;;;;106.15;54.83;;;;;;;1.01;84.39;100243.58;2136794;83;33000;-70
2022/11/15 06:07:00;;;;;;;100.40;53.10;;;;;;;0.99;84.40;100254.63;2136803;83;29394;-69
2022/11/15 06:10:02;;;;;;;118.22;61.42;;;;;;;0.97;84.41;100255.08;2136974;83;27702;-69
2022/11/15 06:13:04;;;;;;;119.55;61.20;;;;;;;0.96;84.47;100255.08;2136871;83;28686;-68
2022/11/15 06:16:06;;;;;;;141.18;66.87;;;;;;;0.97;84.53;100255.52;2136779;83;31072;-68
2022/11/15 06:19:08;;;;;;;132.43;66.40;;;;;;;0.97;84.65;100254.19;2136769;83;33722;-69
2022/11/15 06:22:10;;;;;;;149.50;71.40;;;;;;;0.97;84.89;100255.52;2136885;83;29307;-68
2022/11/15 06:25:11;;;;;;;144.17;69.95;;;;;;;0.98;84.96;100255.94;2138392;82;27607;-68
2022/11/15 06:28:13;;;;;;;135.40;66.17;;;;;;;0.99;84.97;100255.94;2188462;81;29360;-69
2022/11/15 06:31:14;;;;;;;127.75;65.25;;;;;;;1.01;85.03;100255.91;2159370;82;31061;-70
2022/11/15 06:34:16;;;;;;;124.65;61.77;;;;;;;1.02;85.02;100251.92;2159435;82;32939;-69
2022/11/15 06:37:17;;;;;;;124.78;61.70;;;;;;;1.04;84.96;100246.19;2159500;82;30094;-69
2022/11/15 06:40:19;;;;;;;119.20;59.38;;;;;;;1.04;84.91;100246.19;2159338;82;27629;-69
2022/11/15 06:43:20;;;;;;;120.97;61.15;;;;;;;1.10;84.98;100252.30;2188318;81;28628;-68
2022/11/15 06:46:22;;;;;;;120.75;63.30;;;;;;;1.14;85.05;100254.02;2159024;82;31062;-68
2022/11/15 06:49:24;;;;;;;114.03;58.90;;;;;;;1.17;85.19;100253.95;2159435;82;33044;-67
2022/11/15 06:52:26;;;;;;;123.25;61.45;;;;;;;1.23;85.50;100253.89;2159425;82;29478;-67
2022/11/15 06:55:28;;;;;;;151.18;74.85;;;;;;;1.28;85.47;100265.28;2159435;82;27670;-67
2022/11/15 06:58:30;;;;;;;213.70;99.25;;;;;;;1.35;85.44;100274.00;2155377;82;28236;-68
2022/11/15 07:01:32;;;;;;;168.15;81.37;;;;;;;1.39;85.39;100284.95;2154699;82;31055;-67
2022/11/15 07:04:35;;;;;;;189.45;90.25;;;;;;;1.44;85.45;100279.14;2154717;82;33795;-67
2022/11/15 07:07:37;;;;;;;171.28;85.75;;;;;;;1.52;85.63;100280.37;2154675;82;29347;-67
2022/11/15 07:10:39;;;;;;;146.93;74.58;;;;;;;1.59;85.71;100264.89;2204962;80;27724;-67
2022/11/15 07:13:40;;;;;;;140.12;71.65;;;;;;;1.68;85.73;100270.49;2204790;80;28629;-68
2022/11/15 07:16:42;;;;;;;130.05;66.20;;;;;;;1.77;85.80;100273.00;2204855;80;31904;-68
2022/11/15 07:19:44;;;;;;;128.30;68.70;;;;;;;1.89;85.99;100269.77;2204766;80;32942;-68
2022/11/15 07:22:45;;;;;;;122.95;64.27;;;;;;;2.00;86.04;100269.16;2204882;80;29315;-68
2022/11/15 07:25:47;;;;;;;119.67;60.67;;;;;;;2.11;86.11;100273.83;2204135;80;27629;-68
2022/11/15 07:28:48;;;;;;;135.55;69.97;;;;;;;2.23;86.25;100276.73;2199151;80;28750;-68
2022/11/15 07:31:50;;;;;;;122.87;62.90;;;;;;;2.36;86.34;100275.20;2199102;80;31049;-68
2022/11/15 07:34:52;;;;;;;111.60;60.90;;;;;;;2.48;86.32;100274.14;2199159;81;33124;-68
2022/11/15 07:38:00;;;;;;;118.30;61.98;;;;;;;2.63;86.53;100283.59;2199007;80;28764;-68
2022/11/15 07:41:05;;;;;;;123.18;64.67;;;;;;;2.80;86.56;100273.59;2199103;80;27630;-68
2022/11/15 07:44:06;;;;;;;138.55;72.32;;;;;;;2.97;86.58;100265.80;2198929;81;28545;-67
2022/11/15 07:47:08;;;;;;;134.72;73.57;;;;;;;3.13;86.58;100263.71;2198963;80;31959;-68
2022/11/15 07:50:10;;;;;;;128.10;71.97;;;;;;;3.25;86.42;100264.78;2198868;80;32982;-68
2022/11/15 07:53:12;;;;;;;123.13;68.67;;;;;;;3.39;86.53;100261.01;2199075;80;29300;-68
2022/11/15 07:56:13;;;;;;;120.35;68.35;;;;;;;3.50;86.41;100266.48;2198894;80;27674;-68
2022/11/15 07:59:15;;;;;;;123.72;69.22;;;;;;;3.61;86.40;100258.30;2198559;80;28658;-68
2022/11/15 08:02:17;;;;;;;107.40;63.90;;;;;;;3.73;86.40;100255.84;2199030;80;31644;-68
2022/11/15 08:05:19;;;;;;;111.42;58.30;;;;;;;3.86;86.40;100254.24;2198792;80;32952;-68
2022/11/15 08:08:20;;;;;;;98.17;56.55;;;;;;;3.98;86.48;100255.28;2198967;80;30064;-68
2022/11/15 08:11:22;;;;;;;101.85;55.28;;;;;;;4.10;86.54;100253.69;2198957;80;27729;-68
2022/11/15 08:14:24;;;;;;;104.50;55.48;;;;;;;4.24;86.47;100248.50;2198901;81;29403;-68
2022/11/15 08:17:25;;;;;;;101.87;58.02;;;;;;;4.37;86.54;100244.63;2198952;80;31814;-68
2022/11/15 08:20:31;;;;;;;100.95;57.70;;;;;;;4.46;86.25;100246.18;2198850;80;32937;-67
2022/11/15 08:23:33;;;;;;;100.67;58.15;;;;;;;4.60;86.41;100241.86;2198843;80;29380;-67
2022/11/15 08:26:35;;;;;;;104.10;59.23;;;;;;;4.72;86.38;100231.36;2200741;80;27689;-68
2022/11/15 08:29:36;;;;;;;100.27;58.13;;;;;;;4.86;86.44;100229.67;2204859;80;28694;-67
2022/11/15 08:32:38;;;;;;;105.40;61.05;;;;;;;4.97;86.16;100230.70;2204707;80;31204;-67
2022/11/15 08:35:41;;;;;;;102.85;58.68;;;;;;;5.08;86.09;100229.94;2204788;80;33695;-68
2022/11/15 08:38:43;;;;;;;101.30;58.83;;;;;;;5.21;86.35;100229.62;2204742;80;29315;-67
2022/11/15 08:41:45;;;;;;;95.72;55.52;;;;;;;5.30;86.11;100222.22;2204624;80;28233;-67
2022/11/15 08:44:46;;;;;;;99.70;55.78;;;;;;;5.42;86.03;100222.80;2204653;80;29446;-65
2022/11/15 08:47:48;;;;;;;84.92;53.73;;;;;;;5.53;86.18;100211.86;2185866;80;31013;-65
2022/11/15 08:50:55;;;;;;;101.30;56.25;;;;;;;5.67;86.06;100217.62;2152165;82;34178;-68
2022/11/15 08:53:57;;;;;;;93.05;56.25;;;;;;;5.81;86.20;100210.52;2114304;83;29332;-63
2022/11/15 08:56:59;;;;;;;101.85;56.30;;;;;;;5.97;86.15;100200.73;2114090;83;27729;-67
2022/11/15 09:00:02;;;;;;;96.00;54.45;;;;;;;6.10;86.03;100195.48;2116348;84;29875;-65
2022/11/15 09:03:06;;;;;;;90.20;55.20;;;;;;;6.25;86.03;100204.72;2156191;82;31886;-67
2022/11/15 09:06:08;;;;;;;76.22;54.00;;;;;;;6.41;85.93;100206.42;2156573;82;33134;-65
2022/11/15 09:09:10;;;;;;;97.47;56.58;;;;;;;6.52;85.66;100202.92;2156633;82;30164;-64
2022/11/15 09:12:12;;;;;;;88.67;51.92;;;;;;;6.65;85.75;100211.36;2156708;82;28293;-63
2022/11/15 09:15:13;;;;;;;92.05;53.23;;;;;;;6.78;85.46;100214.91;2156394;82;29971;-64
2022/11/15 09:18:15;;;;;;;91.20;56.00;;;;;;;6.89;85.44;100210.55;2156466;82;31029;-63
2022/11/15 09:21:19;;;;;;;97.40;57.17;;;;;;;7.00;85.42;100211.02;2154614;82;33402;-63
2022/11/15 09:24:21;;;;;;;85.03;54.10;;;;;;;7.12;85.25;100214.55;2116152;83;30219;-68
2022/11/15 09:27:23;;;;;;;91.00;54.48;;;;;;;7.24;85.12;100212.39;2106690;84;27716;-66
2022/11/15 09:30:25;;;;;;;90.85;54.42;;;;;;;7.35;84.98;100210.17;2101773;84;28863;-65
2022/11/15 09:33:27;;;;;;;86.05;49.20;;;;;;;7.47;84.84;100202.63;2098658;84;31036;-63
2022/11/15 09:36:30;;;;;;;88.58;51.30;;;;;;;7.54;84.55;100195.67;2098218;84;33824;-64
2022/11/15 09:39:32;;;;;;;93.50;56.77;;;;;;;7.64;84.42;100190.84;2098531;84;29910;-63
2022/11/15 09:43:07;;;;;;;92.95;55.70;;;;;;;7.72;84.35;100184.77;2098488;84;27828;-65
2022/11/15 09:46:35;;;;;;;92.05;54.95;;;;;;;7.81;84.09;100188.86;2098575;84;28730;-65
2022/11/15 09:49:37;;;;;;;88.37;51.92;;;;;;;7.94;84.48;100181.69;2098391;84;30841;-67
2022/11/15 09:52:43;;;;;;;80.60;50.67;;;;;;;8.07;84.32;100173.58;2098623;84;34104;-66
2022/11/15 09:55:55;;;;;;;78.75;49.03;;;;;;;8.18;84.30;100166.47;2098673;84;29328;-69
2022/11/15 09:59:36;;;;;;;85.90;48.65;;;;;;;8.28;84.13;100162.95;2098175;84;27590;-66
2022/11/15 10:03:03;;;;;;;83.35;50.23;;;;;;;8.42;84.09;100163.70;2098777;84;28647;-64
2022/11/15 10:06:05;;;;;;;79.17;48.10;;;;;;;8.54;83.84;100159.65;2098853;84;32161;-63
2022/11/15 10:09:17;;;;;;;79.10;45.78;;;;;;;8.64;83.83;100145.83;2098637;84;33862;-63
2022/11/15 10:12:19;;;;;;;72.27;42.43;;;;;;;8.74;83.50;100138.77;2098653;84;29343;-65
2022/11/15 10:15:22;;;;;;;71.42;42.95;;;;;;;8.84;83.39;100138.73;2098666;84;27705;-64
2022/11/15 10:19:03;;;;;;;73.65;45.52;;;;;;;8.94;83.36;100140.05;2098354;84;28709;-67
2022/11/15 10:22:22;;;;;;;72.35;43.10;;;;;;;9.04;83.17;100133.81;2097995;84;32260;-64
2022/11/15 10:25:30;;;;;;;72.80;43.28;;;;;;;9.15;83.15;100122.63;2098289;84;33782;-65
2022/11/15 10:28:32;;;;;;;70.92;43.20;;;;;;;9.26;83.00;100120.80;2109742;83;29314;-65
2022/11/15 10:31:33;;;;;;;61.50;40.00;;;;;;;9.36;82.89;100119.41;2114044;84;28131;-65
2022/11/15 10:34:37;;;;;;;62.17;39.85;;;;;;;9.47;83.01;100115.37;2113958;83;29776;-64
2022/11/15 10:37:39;;;;;;;59.23;37.00;;;;;;;9.57;82.99;100116.20;2114092;84;31182;-64
2022/11/15 10:40:43;;;;;;;58.25;38.80;;;;;;;9.69;82.83;100116.53;2114287;84;33121;-65
2022/11/15 10:43:48;;;;;;;66.67;40.88;;;;;;;9.79;82.58;100111.59;2114562;84;29538;-65
2022/11/15 10:46:58;;;;;;;68.97;40.33;;;;;;;9.85;82.19;100100.11;2111581;84;27590;-72
2022/11/15 10:50:05;;;;;;;69.22;41.70;;;;;;;9.93;82.17;100095.72;2113159;84;28745;-64
2022/11/15 10:53:23;;;;;;;70.60;42.55;;;;;;;10.00;81.89;100091.80;2114355;84;31573;-66
2022/11/15 10:56:26;;;;;;;67.53;40.65;;;;;;;10.07;81.70;100092.36;2110986;84;33023;-64
2022/11/15 10:59:33;;;;;;;66.20;40.00;;;;;;;10.14;81.58;100093.75;2114288;84;30298;-63
2022/11/15 11:02:40;;;;;;;62.85;40.38;;;;;;;10.22;81.39;100081.31;2114863;83;27635;-64
2022/11/15 11:05:42;;;;;;;65.65;39.85;;;;;;;10.29;81.18;100081.40;2113322;84;28653;-64
2022/11/15 11:09:02;;;;;;;71.25;46.58;;;;;;;10.36;80.96;100074.36;2114212;83;30477;-64
2022/11/15 11:12:08;;;;;;;64.58;40.80;;;;;;;10.43;80.70;100077.16;2114112;83;33378;-65
2022/11/15 11:15:14;;;;;;;57.43;37.15;;;;;;;10.49;80.60;100074.17;2114593;84;29666;-64
2022/11/15 11:18:27;;;;;;;63.38;39.95;;;;;;;10.55;80.23;100075.16;2114541;83;27697;-64
2022/11/15 11:22:08;;;;;;;60.43;38.83;;;;;;;10.63;80.02;100072.95;2114003;83;30020;-65
2022/11/15 11:25:48;;;;;;;65.42;39.70;;;;;;;10.71;79.76;100061.83;2077618;85;31057;-65
2022/11/15 11:29:22;;;;;;;63.83;39.98;;;;;;;10.77;79.13;100058.80;2077949;85;33042;-67
2022/11/15 11:32:32;;;;;;;58.55;36.95;;;;;;;10.84;79.00;100054.45;2040767;87;29745;-65
2022/11/15 11:35:41;;;;;;;55.05;35.40;;;;;;;10.91;79.42;100052.69;2063667;86;27683;-64
2022/11/15 11:39:14;;;;;;;54.58;32.83;;;;;;;10.98;79.26;100051.02;2040462;87;28857;-64
2022/11/15 11:42:42;;;;;;;50.52;31.80;;;;;;;11.03;79.29;100046.25;2063605;86;32234;-64
2022/11/15 11:46:01;;;;;;;51.13;31.93;;;;;;;11.09;79.32;100045.42;1961951;90;34351;-64
2022/11/15 11:49:23;;;;;;;50.67;32.13;;;;;;;11.15;78.83;100037.54;1905410;93;30127;-65
2022/11/15 11:52:42;;;;;;;53.15;32.13;;;;;;;11.20;78.78;100024.72;1873569;94;27689;-68
2022/11/15 11:55:47;;;;;;;46.18;29.48;;;;;;;11.25;78.34;100027.16;1857905;95;28810;-68
2022/11/15 11:58:51;;;;;;;46.95;29.52;;;;;;;11.31;77.76;100022.77;1882924;94;32215;-64
2022/11/15 12:01:53;;;;;;;41.18;27.35;;;;;;;11.36;78.10;100022.03;1891482;92;33777;-64
2022/11/15 12:05:11;;;;;;;42.15;27.00;;;;;;;11.39;77.79;100013.82;1894025;94;29470;-65
2022/11/15 12:08:49;;;;;;;44.35;26.73;;;;;;;11.44;77.95;100008.64;1925083;92;28586;-69
2022/11/15 12:12:05;;;;;;;39.80;25.88;;;;;;;11.51;77.91;100012.71;1924552;92;28757;-70
2022/11/15 12:15:17;;;;;;;35.88;25.00;;;;;;;11.54;77.46;100009.36;1924495;92;31143;-68
2022/11/15 12:18:19;;;;;;;35.80;23.73;;;;;;;11.59;77.51;100002.38;1924292;92;33844;-69
2022/11/15 12:21:47;;;;;;;35.30;23.83;;;;;;;11.62;77.19;100002.20;1933723;88;29318;-69
2022/11/15 12:25:15;;;;;;;39.30;26.25;;;;;;;11.63;77.04;100000.41;2030662;85;27770;-70
2022/11/15 12:28:35;;;;;;;36.77;23.77;;;;;;;11.66;77.00;99993.02;2126046;82;28692;-68
2022/11/15 12:31:44;;;;;;;37.15;24.47;;;;;;;11.67;76.76;99989.39;2150556;82;31913;-69
2022/11/15 12:34:48;;;;;;;37.53;23.70;;;;;;;11.69;76.44;99971.84;2150538;82;33860;-70
2022/11/15 12:37:54;;;;;;;35.13;24.47;;;;;;;11.71;76.47;99972.63;2150422;82;30450;-69
2022/11/15 12:41:15;;;;;;;33.25;23.32;;;;;;;11.73;76.37;99967.18;2150670;82;27709;-70
2022/11/15 12:44:40;;;;;;;37.58;23.95;;;;;;;11.74;76.47;99965.73;2150436;82;29506;-70
2022/11/15 12:47:41;;;;;;;36.83;23.05;;;;;;;11.76;76.35;99965.63;2150399;82;31075;-69
2022/11/15 12:50:57;;;;;;;36.65;24.57;;;;;;;11.78;76.11;99967.28;2150537;82;32803;-68
2022/11/15 12:53:59;;;;;;;35.68;21.27;;;;;;;11.77;75.91;99953.48;2150355;82;30015;-70
2022/11/15 12:57:09;;;;;;;34.92;22.00;;;;;;;11.79;75.53;99959.62;2150436;82;27716;-70
2022/11/15 13:00:22;;;;;;;32.78;20.35;;;;;;;11.80;75.55;99955.10;2150797;82;28818;-69
2022/11/15 13:03:25;;;;;;;27.05;19.65;;;;;;;11.79;75.46;99944.86;2150834;82;31223;-70
2022/11/15 13:06:49;;;;;;;28.83;19.02;;;;;;;11.80;75.40;99940.34;2150695;82;33883;-69
2022/11/15 13:09:53;;;;;;;34.05;19.90;;;;;;;11.81;75.02;99940.73;2150814;82;29305;-67
2022/11/15 13:12:58;;;;;;;34.98;21.97;;;;;;;11.80;74.78;99935.85;2150903;82;27713;-69
2022/11/15 13:15:59;;;;;;;;;;;;;;;11.82;74.29;99934.41;2153169;82;28753;-70
2022/11/15 13:19:02;;;;;;;36.98;24.70;;;;;;;11.83;74.77;99926.25;2150768;82;30446;-68
2022/11/15 13:25:48;;;;;;;36.28;24.55;;;;;;;11.88;74.27;99935.39;2150730;82;29438;-69
2022/11/15 13:28:54;;;;;;;40.65;26.37;;;;;;;11.90;74.45;99932.13;2143773;82;27523;-69
2022/11/15 13:31:55;;;;;;;39.10;26.20;;;;;;;11.93;74.62;99928.39;2135875;83;28366;-69
2022/11/15 13:34:57;;;;;;;37.93;24.45;;;;;;;11.95;74.91;99921.95;2136246;83;31018;-69
2022/11/15 13:38:03;;;;;;;37.75;25.57;;;;;;;11.97;74.68;99920.05;2142033;83;32943;-69
2022/11/15 13:41:28;;;;;;;34.78;24.70;;;;;;;11.99;74.67;99923.53;2136379;83;30131;-69
2022/11/15 13:44:32;;;;;;;36.48;24.07;;;;;;;12.00;74.72;99919.02;2136425;83;27725;-69
2022/11/15 13:47:34;;;;;;;34.43;24.27;;;;;;;11.98;74.45;99920.46;2136525;83;28655;-69
2022/11/15 13:50:37;;;;;;;41.70;24.95;;;;;;;11.97;74.42;99920.05;2136320;83;30518;-70
2022/11/15 13:53:42;;;;;;;34.75;23.67;;;;;;;11.96;74.47;99916.97;2136335;83;33797;-69
2022/11/15 13:56:55;;;;;;;32.28;21.40;;;;;;;11.97;74.09;99919.20;2136089;83;30126;-69
2022/11/15 14:00:05;;;;;;;35.15;22.17;;;;;;;11.94;73.94;99909.98;2135881;83;27682;-69
2022/11/15 14:03:21;;;;;;;42.40;26.57;;;;;;;11.93;73.93;99906.91;2136324;83;28901;-69
2022/11/15 14:06:27;;;;;;;31.68;21.95;;;;;;;11.92;74.11;99908.72;2135161;83;31021;-69
2022/11/15 14:09:45;;;;;;;33.58;20.50;;;;;;;11.89;73.96;99905.37;2136237;83;33041;-69
2022/11/15 14:12:51;;;;;;;32.50;21.02;;;;;;;11.84;73.37;99900.28;2136321;83;29338;-69
2022/11/15 14:15:54;;;;;;;48.78;31.65;;;;;;;11.80;73.81;99905.45;2136402;83;27679;-69
2022/11/15 14:18:55;;;;;;;41.88;29.15;;;;;;;11.74;73.89;99901.83;2136243;83;28654;-70
2022/11/15 14:22:26;;;;;;;36.05;26.37;;;;;;;11.67;73.84;99895.47;2136217;83;31217;-69
2022/11/15 14:25:34;;;;;;;36.42;25.85;;;;;;;11.61;73.89;99892.30;2136178;83;33161;-67
2022/11/15 14:28:39;;;;;;;42.35;27.05;;;;;;;11.52;73.85;99895.91;2140455;82;29312;-69
2022/11/15 14:31:40;;;;;;;38.65;27.17;;;;;;;11.44;73.85;99887.48;2151120;82;27602;-68